Time;durP1;ratioP1;P1;durP2;ratioP2;P2;SDS_P1;SDS_P2;PMS_P1;PMS_P2;Temp;Humidity;BMP_temperature;BMP_pressure;BME280_temperature;BME280_humidity;BME280_pressure;Samples;Min_cycle;Max_cycle;Signal;HPM_P1;HPM_P2
2021/04/22 00:01:17;;;;;;;20.67;3.33;;;3.10;91.30;;;;;;4942701;29;20032;-91
2021/04/22 00:03:43;;;;;;;10.35;2.20;;;3.00;91.50;;;;;;4971702;29;20082;-92
2021/04/22 00:06:12;;;;;;;11.50;2.28;;;2.90;91.60;;;;;;4944348;29;20062;-92
2021/04/22 00:08:37;;;;;;;10.82;2.17;;;2.90;91.80;;;;;;4927892;29;20038;-92
2021/04/22 00:11:03;;;;;;;10.45;2.03;;;2.90;91.90;;;;;;4943380;29;20027;-91
2021/04/22 00:13:30;;;;;;;12.05;2.33;;;2.80;92.00;;;;;;4960143;29;20502;-91
2021/04/22 00:15:58;;;;;;;11.48;2.63;;;2.80;92.10;;;;;;4942872;29;20023;-92
2021/04/22 00:18:25;;;;;;;15.65;3.30;;;2.70;92.20;;;;;;4942835;29;20043;-91
2021/04/22 00:20:51;;;;;;;11.93;2.90;;;2.70;92.40;;;;;;4943538;29;20067;-92
2021/04/22 00:23:19;;;;;;;13.63;2.05;;;2.70;92.50;;;;;;4942835;29;20090;-91
2021/04/22 00:25:47;;;;;;;11.18;2.42;;;2.70;92.70;;;;;;4943740;29;20031;-92
2021/04/22 00:28:14;;;;;;;10.38;2.30;;;2.60;92.70;;;;;;4943495;29;20033;-91
2021/04/22 00:30:42;;;;;;;16.38;2.50;;;2.60;92.80;;;;;;4946767;29;20036;-91
2021/04/22 00:33:12;;;;;;;9.90;2.50;;;2.60;92.90;;;;;;4951249;29;20039;-91
2021/04/22 00:35:38;;;;;;;17.55;2.30;;;2.50;93.00;;;;;;4956664;29;20108;-91
2021/04/22 00:38:06;;;;;;;9.48;2.20;;;2.50;93.10;;;;;;4961821;29;20099;-91
2021/04/22 00:40:32;;;;;;;11.27;2.40;;;2.40;93.50;;;;;;4945069;29;20036;-92
2021/04/22 00:43:03;;;;;;;10.68;2.00;;;2.40;93.30;;;;;;4948082;29;20051;-91
2021/04/22 00:45:29;;;;;;;15.15;2.38;;;2.30;93.50;;;;;;4943084;29;20028;-91
2021/04/22 00:47:56;;;;;;;12.07;2.58;;;2.30;93.60;;;;;;4942151;29;20120;-91
2021/04/22 00:50:27;;;;;;;12.40;2.95;;;2.30;93.80;;;;;;4941259;29;20030;-91
2021/04/22 00:52:56;;;;;;;12.93;2.40;;;2.20;93.90;;;;;;4939375;29;20031;-91
2021/04/22 00:55:22;;;;;;;14.20;2.50;;;2.20;94.00;;;;;;4940880;29;20080;-91
2021/04/22 00:57:49;;;;;;;7.03;2.53;;;2.20;94.10;;;;;;4940263;29;20086;-92
2021/04/22 01:00:21;;;;;;;19.52;2.88;;;2.10;94.20;;;;;;4939888;29;20032;-91
2021/04/22 01:02:47;;;;;;;10.27;2.53;;;2.10;94.30;;;;;;4939446;29;20047;-91
2021/04/22 01:05:21;;;;;;;16.27;2.97;;;2.00;94.50;;;;;;4939042;29;20028;-92
2021/04/22 01:07:48;;;;;;;15.80;3.38;;;2.00;94.70;;;;;;4939398;29;20031;-91
2021/04/22 01:10:16;;;;;;;9.32;2.10;;;1.90;94.80;;;;;;4939785;29;20024;-91
2021/04/22 01:12:42;;;;;;;11.77;2.30;;;1.90;94.90;;;;;;4939033;29;20558;-92
2021/04/22 01:15:14;;;;;;;12.70;2.80;;;1.90;95.10;;;;;;4938966;29;20043;-90
2021/04/22 01:17:40;;;;;;;14.65;2.63;;;1.80;95.20;;;;;;4938837;29;20042;-91
2021/04/22 01:20:14;;;;;;;11.93;2.72;;;1.80;95.30;;;;;;4938592;29;20034;-91
2021/04/22 01:22:42;;;;;;;13.73;3.35;;;1.80;95.40;;;;;;4938601;29;20055;-91
2021/04/22 01:25:12;;;;;;;11.25;2.83;;;1.70;95.50;;;;;;4922188;29;20036;-91
2021/04/22 01:27:40;;;;;;;15.70;3.00;;;1.70;95.60;;;;;;4939579;29;20028;-90
2021/04/22 01:30:12;;;;;;;11.05;3.03;;;1.70;95.70;;;;;;4942008;29;20028;-90
2021/04/22 01:32:39;;;;;;;17.85;3.20;;;1.60;95.80;;;;;;4968123;29;20054;-90
2021/04/22 01:35:14;;;;;;;13.02;2.80;;;1.60;95.90;;;;;;4955249;29;20031;-90
2021/04/22 01:37:41;;;;;;;13.98;3.03;;;1.50;96.10;;;;;;4951274;29;20034;-90
2021/04/22 01:40:13;;;;;;;7.63;2.20;;;1.50;96.30;;;;;;4948808;29;20031;-91
2021/04/22 01:42:39;;;;;;;19.35;2.75;;;1.40;96.40;;;;;;4946778;29;20031;-90
2021/04/22 01:45:07;;;;;;;18.38;3.60;;;1.50;96.60;;;;;;4945295;29;20027;-92
2021/04/22 01:47:33;;;;;;;12.68;2.70;;;1.40;96.70;;;;;;4942751;29;20031;-92
2021/04/22 01:49:59;;;;;;;8.30;2.50;;;1.40;96.70;;;;;;4942250;29;20047;-92
2021/04/22 01:52:25;;;;;;;21.60;2.63;;;1.40;96.90;;;;;;4941448;29;20062;-91
2021/04/22 01:54:56;;;;;;;13.93;2.50;;;1.30;97.00;;;;;;4940982;29;20044;-92
2021/04/22 01:57:24;;;;;;;12.70;2.70;;;1.30;97.00;;;;;;4941025;29;20131;-92
2021/04/22 01:59:51;;;;;;;14.95;3.75;;;1.20;97.10;;;;;;4940902;29;20106;-91
2021/04/22 02:02:17;;;;;;;12.70;2.63;;;1.20;97.20;;;;;;4941054;29;20066;-92
2021/04/22 02:04:47;;;;;;;9.25;2.72;;;1.20;97.50;;;;;;4923890;29;20507;-91
2021/04/22 02:07:13;;;;;;;16.02;3.28;;;1.20;97.60;;;;;;4941488;29;20027;-93
2021/04/22 02:09:39;;;;;;;6.80;2.40;;;1.20;97.70;;;;;;4940973;29;20087;-92
2021/04/22 02:12:05;;;;;;;18.17;3.03;;;1.20;97.90;;;;;;4941422;29;20525;-92
2021/04/22 02:14:31;;;;;;;11.00;2.88;;;1.20;98.00;;;;;;4941273;29;20039;-93
2021/04/22 02:16:58;;;;;;;15.80;3.03;;;1.20;98.00;;;;;;4924857;29;20036;-92
2021/04/22 02:19:24;;;;;;;10.05;3.00;;;1.10;98.10;;;;;;4940837;29;20062;-90
2021/04/22 02:21:51;;;;;;;10.63;3.05;;;1.10;98.20;;;;;;4939706;29;20031;-91
2021/04/22 02:24:16;;;;;;;11.43;3.63;;;1.10;98.40;;;;;;4939822;29;20034;-92
2021/04/22 02:26:43;;;;;;;12.75;3.50;;;1.00;98.50;;;;;;4939728;29;20561;-92
2021/04/22 02:29:09;;;;;;;14.45;3.53;;;1.00;98.60;;;;;;4939531;29;20038;-92
2021/04/22 02:31:34;;;;;;;14.60;2.70;;;1.00;98.80;;;;;;4956953;29;20051;-92
2021/04/22 02:34:00;;;;;;;12.85;2.92;;;1.00;98.80;;;;;;4939667;29;20637;-91
2021/04/22 02:36:29;;;;;;;22.73;2.53;;;0.90;98.90;;;;;;4956642;29;20031;-92
2021/04/22 02:38:55;;;;;;;16.00;3.00;;;0.90;99.00;;;;;;4924063;29;20491;-92
2021/04/22 02:41:21;;;;;;;16.80;3.58;;;0.90;99.10;;;;;;4939545;29;20053;-93
2021/04/22 02:43:47;;;;;;;13.45;2.90;;;0.90;99.20;;;;;;4939954;29;20082;-92
2021/04/22 02:46:13;;;;;;;12.73;3.00;;;0.80;99.20;;;;;;4939273;29;20171;-92
2021/04/22 02:48:39;;;;;;;8.00;3.42;;;0.80;99.30;;;;;;4939106;29;20030;-93
2021/04/22 02:51:08;;;;;;;11.90;2.47;;;0.70;99.40;;;;;;4939663;29;20031;-92
2021/04/22 02:53:33;;;;;;;8.82;2.80;;;0.60;99.50;;;;;;4939419;29;20102;-91
2021/04/22 02:55:59;;;;;;;7.68;2.63;;;0.60;99.70;;;;;;4940412;29;20483;-92
2021/04/22 02:58:26;;;;;;;10.60;2.75;;;0.60;99.70;;;;;;4940999;29;20383;-92
2021/04/22 03:00:55;;;;;;;14.45;2.85;;;0.60;99.80;;;;;;4940921;29;20122;-92
2021/04/22 03:03:21;;;;;;;13.50;2.85;;;0.60;99.80;;;;;;4940704;29;20071;-92
2021/04/22 03:05:48;;;;;;;13.00;2.88;;;0.50;99.90;;;;;;4947125;29;20035;-92
2021/04/22 03:08:16;;;;;;;16.30;3.08;;;0.50;99.90;;;;;;4922861;29;20069;-92
2021/04/22 03:10:44;;;;;;;15.23;2.85;;;0.50;99.90;;;;;;4938303;29;20039;-91
2021/04/22 03:13:11;;;;;;;11.10;2.97;;;0.50;99.90;;;;;;4938329;29;20045;-91
2021/04/22 03:15:37;;;;;;;14.15;3.20;;;0.50;99.90;;;;;;4940582;29;20035;-92
2021/04/22 03:18:03;;;;;;;12.77;2.90;;;0.40;99.90;;;;;;4942866;29;20039;-92
2021/04/22 03:20:29;;;;;;;18.85;3.15;;;0.40;99.90;;;;;;4944451;29;20027;-92
2021/04/22 03:22:55;;;;;;;12.23;4.32;;;0.40;99.90;;;;;;4964931;28;20035;-92
2021/04/22 03:25:23;;;;;;;15.13;4.30;;;0.40;99.90;;;;;;4964399;29;20019;-92
2021/04/22 03:27:49;;;;;;;13.82;3.80;;;0.40;99.90;;;;;;4955538;29;20073;-92
2021/04/22 03:30:17;;;;;;;10.43;3.15;;;0.40;99.90;;;;;;4944731;29;20406;-93
2021/04/22 03:32:43;;;;;;;10.90;3.03;;;0.30;99.90;;;;;;4945052;29;20058;-92
2021/04/22 03:35:11;;;;;;;11.80;2.85;;;0.30;99.90;;;;;;4943678;29;20027;-92
2021/04/22 03:37:37;;;;;;;11.85;3.13;;;0.30;99.90;;;;;;4942789;29;20023;-92
2021/04/22 03:40:05;;;;;;;16.92;3.97;;;0.20;99.90;;;;;;4959717;29;20054;-92
2021/04/22 03:42:30;;;;;;;12.70;3.17;;;0.20;99.90;;;;;;4942467;29;20037;-92
2021/04/22 03:44:59;;;;;;;13.52;3.15;;;0.20;99.90;;;;;;4942585;29;20126;-93
2021/04/22 03:47:25;;;;;;;6.82;3.05;;;0.10;99.90;;;;;;4942479;29;20023;-92
2021/04/22 03:49:50;;;;;;;10.35;2.92;;;0.10;99.90;;;;;;4959396;29;20078;-92
2021/04/22 03:52:16;;;;;;;13.70;2.72;;;0.10;99.90;;;;;;4942892;29;20434;-92
2021/04/22 03:54:42;;;;;;;12.20;2.53;;;0.10;99.90;;;;;;4926415;29;20032;-93
2021/04/22 03:57:10;;;;;;;14.02;2.72;;;0.00;99.90;;;;;;4942177;29;20023;-92
2021/04/22 03:59:35;;;;;;;9.45;2.63;;;0.00;99.90;;;;;;4941821;29;20043;-92
2021/04/22 04:02:01;;;;;;;14.52;2.90;;;0.00;99.90;;;;;;4941958;29;20042;-91
2021/04/22 04:04:28;;;;;;;9.13;2.45;;;0.00;99.90;;;;;;4942253;29;20035;-92
2021/04/22 04:06:54;;;;;;;7.80;2.80;;;0.00;99.90;;;;;;4942112;29;20051;-92
2021/04/22 04:09:19;;;;;;;13.32;3.60;;;-0.10;99.90;;;;;;4941898;29;20031;-92
2021/04/22 04:11:46;;;;;;;6.97;2.58;;;-0.10;99.90;;;;;;4941389;29;20066;-91
2021/04/22 04:14:11;;;;;;;15.27;2.92;;;-0.20;99.90;;;;;;4941634;29;20043;-92
2021/04/22 04:16:39;;;;;;;7.70;2.40;;;-0.20;99.90;;;;;;4942138;29;20027;-91
2021/04/22 04:19:05;;;;;;;15.27;2.78;;;-0.20;99.90;;;;;;4942574;29;20118;-92
2021/04/22 04:21:32;;;;;;;10.07;3.28;;;-0.20;99.90;;;;;;4945254;29;20074;-91
2021/04/22 04:24:03;;;;;;;12.02;3.33;;;-0.20;99.90;;;;;;4957819;29;20035;-91
2021/04/22 04:26:28;;;;;;;16.00;3.78;;;-0.20;99.90;;;;;;4957809;29;20043;-91
2021/04/22 04:28:55;;;;;;;15.65;2.90;;;-0.30;99.90;;;;;;4962882;28;20046;-91
2021/04/22 04:31:21;;;;;;;11.57;2.80;;;-0.30;99.90;;;;;;4964431;28;20051;-91
2021/04/22 04:33:49;;;;;;;12.32;3.13;;;-0.40;99.90;;;;;;4962409;29;20059;-91
2021/04/22 04:36:15;;;;;;;12.00;2.53;;;-0.40;99.90;;;;;;4956259;29;20027;-90
2021/04/22 04:38:41;;;;;;;9.30;2.30;;;-0.40;99.90;;;;;;4953743;29;20519;-91
2021/04/22 04:41:09;;;;;;;16.67;3.20;;;-0.40;99.90;;;;;;4952854;29;20031;-91
2021/04/22 04:43:34;;;;;;;13.95;3.20;;;-0.40;99.90;;;;;;4950701;29;20058;-92
2021/04/22 04:46:00;;;;;;;14.68;3.65;;;-0.40;99.90;;;;;;4950175;29;20035;-91
2021/04/22 04:48:28;;;;;;;11.80;2.92;;;-0.40;99.90;;;;;;4947819;29;20484;-91
2021/04/22 04:50:58;;;;;;;17.20;3.20;;;-0.40;99.90;;;;;;4947536;29;20031;-92
2021/04/22 04:53:24;;;;;;;14.90;3.45;;;-0.50;99.90;;;;;;4945622;29;20043;-92
2021/04/22 04:55:50;;;;;;;9.55;2.67;;;-0.40;99.90;;;;;;4945662;29;20050;-92
2021/04/22 04:58:18;;;;;;;14.75;3.42;;;-0.50;99.90;;;;;;4944894;29;20031;-92
2021/04/22 05:00:44;;;;;;;11.07;2.78;;;-0.50;99.90;;;;;;4944109;29;20122;-92
2021/04/22 05:03:10;;;;;;;13.13;3.10;;;-0.60;99.90;;;;;;4943650;29;20067;-92
2021/04/22 05:05:36;;;;;;;10.38;3.05;;;-0.50;99.90;;;;;;4943693;29;20057;-92
2021/04/22 05:08:02;;;;;;;14.75;2.72;;;-0.50;99.90;;;;;;4943219;29;20031;-91
2021/04/22 05:10:27;;;;;;;18.00;3.17;;;-0.60;99.90;;;;;;4948578;29;20081;-92
2021/04/22 05:12:53;;;;;;;17.38;3.13;;;-0.60;99.90;;;;;;4942149;29;20058;-92
2021/04/22 05:15:19;;;;;;;10.88;3.10;;;-0.60;99.90;;;;;;4931795;29;20157;-92
2021/04/22 05:17:46;;;;;;;14.45;3.67;;;-0.60;99.90;;;;;;4950600;29;20032;-94
2021/04/22 05:20:13;;;;;;;10.77;3.03;;;-0.70;99.90;;;;;;4959556;29;20019;-93
2021/04/22 05:22:41;;;;;;;10.43;3.13;;;-0.70;99.90;;;;;;4952951;29;20039;-92
2021/04/22 05:25:08;;;;;;;17.88;2.88;;;-0.70;99.90;;;;;;4946016;29;20095;-92
2021/04/22 05:27:34;;;;;;;14.88;2.92;;;-0.70;99.90;;;;;;4956271;29;20092;-92
2021/04/22 05:30:04;;;;;;;15.70;4.22;;;-0.60;99.90;;;;;;4943587;29;20458;-92
2021/04/22 05:32:29;;;;;;;17.20;3.03;;;-0.70;99.90;;;;;;4948133;29;20055;-92
2021/04/22 05:34:56;;;;;;;9.68;3.03;;;-0.70;99.90;;;;;;4942429;29;20036;-92
2021/04/22 05:37:21;;;;;;;7.68;2.78;;;-0.70;99.90;;;;;;4949721;28;20054;-93
2021/04/22 05:39:47;;;;;;;12.05;3.60;;;-0.80;99.90;;;;;;4941683;29;20031;-92
2021/04/22 05:42:13;;;;;;;9.48;3.92;;;-0.80;99.90;;;;;;4941244;29;20506;-92
2021/04/22 05:44:42;;;;;;;17.92;3.30;;;-0.80;99.90;;;;;;4946079;29;20467;-91
2021/04/22 05:47:09;;;;;;;12.82;3.50;;;-0.80;99.90;;;;;;4943359;29;20036;-93
2021/04/22 05:49:44;;;;;;;10.18;4.13;;;-0.80;99.90;;;;;;4946155;29;20063;-93
2021/04/22 05:52:13;;;;;;;10.30;3.30;;;-0.80;99.90;;;;;;4940846;29;20024;-92
2021/04/22 05:54:39;;;;;;;13.93;3.28;;;-0.70;99.90;;;;;;4940475;29;20027;-92
2021/04/22 05:57:05;;;;;;;21.08;4.03;;;-0.70;99.90;;;;;;4948743;29;20038;-92
2021/04/22 05:59:32;;;;;;;13.45;3.08;;;-0.60;99.90;;;;;;4955892;29;20031;-92
2021/04/22 06:01:58;;;;;;;17.52;3.20;;;-0.60;99.90;;;;;;4940015;29;20454;-92
2021/04/22 06:04:24;;;;;;;8.23;2.97;;;-0.60;99.90;;;;;;4940540;29;20081;-91
2021/04/22 06:06:52;;;;;;;10.45;3.10;;;-0.60;99.90;;;;;;4940055;29;20026;-92
2021/04/22 06:09:18;;;;;;;10.80;2.40;;;-0.60;99.90;;;;;;4940789;29;20031;-91
2021/04/22 06:11:46;;;;;;;14.18;3.40;;;-0.60;99.90;;;;;;4940326;29;20517;-91
2021/04/22 06:14:12;;;;;;;11.32;3.45;;;-0.60;99.90;;;;;;4940174;29;20525;-92
2021/04/22 06:16:38;;;;;;;24.27;3.08;;;-0.60;99.90;;;;;;4940819;29;20031;-92
2021/04/22 06:19:05;;;;;;;17.70;3.85;;;-0.50;99.90;;;;;;4965566;28;20052;-92
2021/04/22 06:21:33;;;;;;;13.43;3.13;;;-0.50;99.90;;;;;;4951090;28;20505;-93
2021/04/22 06:23:59;;;;;;;13.07;2.97;;;-0.50;99.90;;;;;;4960821;28;20359;-93
2021/04/22 06:26:27;;;;;;;23.67;3.63;;;-0.40;99.90;;;;;;4951411;28;20081;-92
2021/04/22 06:28:53;;;;;;;19.52;3.45;;;-0.40;99.90;;;;;;4954602;28;20094;-93
2021/04/22 06:31:19;;;;;;;21.48;3.58;;;-0.30;99.90;;;;;;4968553;28;20047;-91
2021/04/22 06:33:45;;;;;;;12.10;3.80;;;-0.30;99.90;;;;;;4951304;28;20101;-91
2021/04/22 06:36:15;;;;;;;15.95;3.95;;;-0.30;99.90;;;;;;4947276;29;20035;-90
2021/04/22 06:38:41;;;;;;;12.02;3.13;;;-0.20;99.90;;;;;;4954195;28;20082;-93
2021/04/22 06:41:07;;;;;;;15.77;3.88;;;-0.20;99.90;;;;;;4961085;28;20027;-92
2021/04/22 06:43:33;;;;;;;14.35;3.47;;;-0.10;99.90;;;;;;4964808;28;20050;-90
2021/04/22 06:45:58;;;;;;;15.48;3.22;;;-0.10;99.90;;;;;;4942470;29;20434;-93
2021/04/22 06:48:24;;;;;;;9.93;2.83;;;0.00;99.90;;;;;;4942852;28;20093;-91
2021/04/22 06:50:49;;;;;;;18.27;4.07;;;0.10;99.90;;;;;;4963971;28;20105;-90
2021/04/22 06:53:17;;;;;;;12.52;3.22;;;0.10;99.90;;;;;;4966128;28;20038;-91
2021/04/22 06:55:42;;;;;;;11.23;3.50;;;0.20;99.90;;;;;;4949072;28;20041;-91
2021/04/22 06:58:11;;;;;;;19.95;3.85;;;0.30;99.90;;;;;;4966966;28;20023;-91
2021/04/22 07:00:39;;;;;;;10.02;2.88;;;0.40;99.90;;;;;;4948244;28;20037;-91
2021/04/22 07:03:06;;;;;;;15.50;3.45;;;0.40;99.90;;;;;;4952193;28;20030;-91
2021/04/22 07:05:33;;;;;;;17.08;3.70;;;0.50;99.90;;;;;;4941558;28;20379;-92
2021/04/22 07:07:59;;;;;;;14.60;3.78;;;0.60;99.90;;;;;;4948570;28;20023;-93
2021/04/22 07:10:25;;;;;;;16.35;3.80;;;0.70;99.90;;;;;;4944074;29;20042;-91
2021/04/22 07:12:58;;;;;;;15.20;3.38;;;0.80;99.90;;;;;;4960410;28;20042;-92
2021/04/22 07:15:25;;;;;;;16.02;5.10;;;0.80;99.90;;;;;;4961978;28;20490;-90
2021/04/22 07:17:51;;;;;;;16.00;3.60;;;0.90;99.90;;;;;;4953019;28;20026;-90
2021/04/22 07:20:22;;;;;;;11.75;3.92;;;1.00;99.90;;;;;;4930376;29;20028;-90
2021/04/22 07:22:48;;;;;;;13.77;3.67;;;1.00;99.90;;;;;;4934005;29;20028;-91
2021/04/22 07:25:17;;;;;;;18.98;3.45;;;1.10;99.90;;;;;;4942390;29;20026;-90
2021/04/22 07:27:45;;;;;;;17.55;4.97;;;1.20;99.90;;;;;;4939594;29;20439;-94
2021/04/22 07:30:14;;;;;;;18.42;3.90;;;1.20;99.90;;;;;;4930640;29;20071;-93
2021/04/22 07:32:44;;;;;;;26.42;6.70;;;1.40;99.90;;;;;;4938844;29;20532;-92
2021/04/22 07:35:18;;;;;;;15.65;3.50;;;1.40;99.90;;;;;;4938360;29;20040;-92
2021/04/22 07:37:53;;;;;;;18.55;3.58;;;1.50;99.90;;;;;;4946298;29;20027;-92
2021/04/22 07:40:42;;;;;;;20.77;3.75;;;1.60;99.90;;;;;;4944546;29;20382;-92
2021/04/22 07:43:11;;;;;;;11.85;3.42;;;1.70;99.90;;;;;;4946321;29;20034;-89
2021/04/22 07:45:41;;;;;;;18.92;3.08;;;1.90;99.90;;;;;;4929690;29;20031;-92
2021/04/22 07:48:08;;;;;;;15.35;2.75;;;2.10;99.90;;;;;;4926083;28;20031;-92
2021/04/22 07:50:41;;;;;;;10.23;2.50;;;2.20;99.90;;;;;;4955946;28;20085;-91
2021/04/22 07:53:12;;;;;;;13.80;3.22;;;2.50;99.90;;;;;;4958492;28;20100;-92
2021/04/22 07:55:44;;;;;;;14.23;2.90;;;2.70;99.90;;;;;;4947479;29;20043;-93
2021/04/22 07:58:13;;;;;;;12.82;4.35;;;2.90;99.90;;;;;;4939429;29;20474;-92
2021/04/22 08:00:39;;;;;;;13.05;2.95;;;3.10;99.90;;;;;;4916243;28;20078;-93
2021/04/22 08:03:05;;;;;;;23.92;5.78;;;3.30;99.90;;;;;;4955576;28;20035;-92
2021/04/22 08:05:35;;;;;;;14.73;3.00;;;3.40;99.90;;;;;;4981679;28;20504;-91
2021/04/22 08:08:01;;;;;;;15.77;3.53;;;3.60;99.90;;;;;;4962568;28;20524;-93
2021/04/22 08:10:30;;;;;;;17.45;3.92;;;3.70;99.90;;;;;;4927356;29;20032;-92
2021/04/22 08:12:56;;;;;;;17.20;4.13;;;3.80;99.90;;;;;;4943896;29;20461;-93
2021/04/22 08:15:22;;;;;;;20.08;3.67;;;4.00;99.90;;;;;;4944325;28;20027;-91
2021/04/22 08:17:48;;;;;;;37.17;4.43;;;4.10;99.90;;;;;;4978069;28;20025;-91
2021/04/22 08:20:20;;;;;;;37.78;4.53;;;4.20;99.90;;;;;;4981125;28;20023;-92
2021/04/22 08:22:46;;;;;;;19.90;3.90;;;4.40;99.90;;;;;;4965130;29;20047;-91
2021/04/22 08:25:22;;;;;;;28.83;4.05;;;4.60;99.90;;;;;;4981345;28;20034;-92
2021/04/22 08:27:52;;;;;;;19.45;2.50;;;4.80;99.90;;;;;;4963521;29;20193;-91
2021/04/22 08:30:23;;;;;;;20.15;2.92;;;5.00;99.90;;;;;;4962128;28;20454;-93
2021/04/22 08:32:49;;;;;;;16.33;3.28;;;5.30;99.90;;;;;;4983532;28;20056;-94
2021/04/22 08:35:15;;;;;;;19.38;2.80;;;5.50;99.90;;;;;;4964884;28;20178;-93
2021/04/22 08:37:41;;;;;;;17.67;2.78;;;5.60;99.90;;;;;;4964205;28;20034;-93
2021/04/22 08:40:10;;;;;;;20.63;2.20;;;5.80;99.90;;;;;;4974514;28;20030;-93
2021/04/22 08:42:37;;;;;;;15.23;2.33;;;6.00;99.90;;;;;;4962659;28;20039;-92
2021/04/22 08:45:05;;;;;;;14.63;2.35;;;6.10;99.90;;;;;;4944752;29;20031;-91
2021/04/22 08:47:32;;;;;;;23.45;4.05;;;6.30;99.80;;;;;;4945453;29;20031;-91
2021/04/22 08:49:59;;;;;;;28.27;3.25;;;6.50;99.30;;;;;;4942984;29;20038;-90
2021/04/22 08:52:25;;;;;;;14.02;2.60;;;6.70;99.00;;;;;;4939540;29;20074;-91
2021/04/22 08:54:51;;;;;;;13.57;2.42;;;6.90;98.70;;;;;;4922798;29;20547;-89
2021/04/22 08:57:17;;;;;;;16.10;2.95;;;7.10;98.20;;;;;;4924161;29;20027;-90
2021/04/22 08:59:43;;;;;;;17.27;2.92;;;7.30;97.60;;;;;;4946836;28;20059;-89
2021/04/22 09:02:10;;;;;;;9.73;2.42;;;7.50;96.80;;;;;;4976535;28;20070;-90
2021/04/22 09:04:36;;;;;;;14.63;2.42;;;7.70;95.80;;;;;;4978791;28;20042;-90
2021/04/22 09:07:03;;;;;;;15.60;2.55;;;7.90;95.30;;;;;;4962751;28;20031;-90
2021/04/22 09:09:28;;;;;;;17.17;2.85;;;8.10;94.80;;;;;;4930376;29;20040;-91
2021/04/22 09:11:54;;;;;;;15.73;2.67;;;8.30;94.10;;;;;;4946322;29;20040;-91
2021/04/22 09:14:23;;;;;;;18.98;2.78;;;8.60;93.90;;;;;;4921667;29;20035;-91
2021/04/22 09:16:50;;;;;;;11.23;2.13;;;8.80;93.00;;;;;;4922264;29;20024;-90
2021/04/22 09:19:19;;;;;;;10.80;2.00;;;9.00;92.00;;;;;;4950698;29;20031;-91
2021/04/22 09:21:53;;;;;;;11.63;2.10;;;9.10;90.60;;;;;;4940656;29;20041;-90
2021/04/22 09:24:21;;;;;;;10.77;1.98;;;9.30;89.00;;;;;;4940584;29;20023;-90
2021/04/22 09:26:52;;;;;;;19.80;4.72;;;9.60;88.00;;;;;;4940741;29;20031;-90
2021/04/22 09:29:37;;;;;;;12.95;1.98;;;9.80;84.50;;;;;;4940039;29;20542;-90
2021/04/22 09:32:20;;;;;;;21.60;2.10;;;9.90;81.60;;;;;;4939969;29;20055;-91
2021/04/22 09:34:52;;;;;;;8.18;1.65;;;10.10;80.00;;;;;;4957470;29;20051;-91
2021/04/22 09:37:20;;;;;;;10.52;1.77;;;10.30;79.00;;;;;;4940334;29;20035;-91
2021/04/22 09:39:48;;;;;;;12.18;3.15;;;10.50;76.30;;;;;;4939368;29;20023;-90
2021/04/22 09:42:20;;;;;;;6.45;1.70;;;10.60;75.00;;;;;;4941103;29;20035;-91
2021/04/22 09:44:49;;;;;;;6.57;1.42;;;10.80;74.10;;;;;;4941146;29;20023;-90
2021/04/22 09:47:22;;;;;;;7.40;1.33;;;11.00;72.90;;;;;;4957367;29;20031;-90
2021/04/22 09:50:01;;;;;;;9.00;2.10;;;11.20;71.80;;;;;;4940524;29;20126;-93
2021/04/22 09:52:36;;;;;;;10.38;1.80;;;11.50;70.60;;;;;;4941273;29;20057;-91
2021/04/22 09:55:03;;;;;;;12.70;1.75;;;11.60;69.50;;;;;;4957616;29;20062;-91
2021/04/22 09:57:36;;;;;;;10.25;1.48;;;11.80;68.20;;;;;;4940688;29;20546;-91
2021/04/22 10:00:22;;;;;;;3.67;0.95;;;12.00;66.50;;;;;;4933039;29;20038;-92
2021/04/22 10:02:55;;;;;;;8.52;1.13;;;12.20;64.00;;;;;;4951969;28;20016;-91
2021/04/22 10:05:33;;;;;;;6.40;1.40;;;12.30;61.10;;;;;;4947844;29;20060;-90
2021/04/22 10:08:12;;;;;;;4.50;1.00;;;12.40;59.40;;;;;;4948685;29;20041;-91
2021/04/22 10:10:39;;;;;;;6.00;1.60;;;12.50;57.90;;;;;;4966120;29;20027;-91
2021/04/22 10:13:07;;;;;;;4.85;1.63;;;12.70;56.90;;;;;;4966259;29;20043;-91
2021/04/22 10:15:34;;;;;;;3.92;0.80;;;12.80;55.70;;;;;;4948900;29;20094;-91
2021/04/22 10:18:03;;;;;;;5.60;1.00;;;12.90;53.10;;;;;;4966212;28;20042;-91
2021/04/22 10:20:31;;;;;;;4.95;1.25;;;13.00;52.00;;;;;;4948987;29;20020;-92
2021/04/22 10:22:57;;;;;;;4.43;1.08;;;13.00;50.40;;;;;;4948296;29;20055;-91
2021/04/22 10:25:26;;;;;;;3.97;1.00;;;13.10;48.90;;;;;;4948081;29;20023;-91
2021/04/22 10:27:53;;;;;;;8.32;1.27;;;13.20;48.50;;;;;;4944312;29;20110;-91
2021/04/22 10:30:19;;;;;;;5.90;1.42;;;13.30;48.10;;;;;;4947321;29;20052;-90
2021/04/22 10:32:48;;;;;;;6.30;1.30;;;13.40;49.00;;;;;;4946588;29;20118;-91
2021/04/22 10:35:20;;;;;;;5.40;1.63;;;13.60;49.90;;;;;;4934378;29;20028;-91
2021/04/22 10:37:49;;;;;;;6.93;1.10;;;13.90;50.20;;;;;;4940760;29;20023;-91
2021/04/22 10:40:21;;;;;;;5.72;1.33;;;14.20;50.10;;;;;;4972198;28;20003;-90
2021/04/22 10:42:48;;;;;;;4.82;1.38;;;14.50;50.30;;;;;;4964543;29;20398;-90
2021/04/22 10:45:16;;;;;;;8.55;1.27;;;14.90;50.20;;;;;;4945659;29;20407;-90
2021/04/22 10:47:42;;;;;;;7.47;1.30;;;15.10;48.80;;;;;;4960119;28;20035;-90
2021/04/22 10:50:19;;;;;;;4.18;1.10;;;15.30;48.10;;;;;;4961886;29;20095;-92
2021/04/22 10:52:50;;;;;;;11.23;1.80;;;15.50;47.70;;;;;;4941946;29;20035;-91
2021/04/22 10:55:27;;;;;;;8.02;2.17;;;15.80;47.50;;;;;;4958000;29;20054;-91
2021/04/22 10:57:55;;;;;;;7.55;1.30;;;16.00;47.20;;;;;;4941500;29;20032;-91
2021/04/22 11:00:24;;;;;;;9.02;1.77;;;16.00;47.50;;;;;;4940568;29;20024;-91
2021/04/22 11:02:57;;;;;;;5.00;1.98;;;16.00;47.70;;;;;;4974140;28;20062;-92
2021/04/22 11:05:27;;;;;;;7.82;1.55;;;16.10;47.90;;;;;;4941041;29;20071;-91
2021/04/22 11:08:04;;;;;;;12.15;2.20;;;16.20;47.80;;;;;;4940719;29;20030;-91
2021/04/22 11:10:40;;;;;;;9.90;1.85;;;16.10;47.30;;;;;;4938891;29;20034;-92
2021/04/22 11:13:12;;;;;;;8.45;2.03;;;16.10;47.40;;;;;;4938630;29;20039;-91
2021/04/22 11:15:38;;;;;;;8.63;2.42;;;16.20;47.50;;;;;;4938718;29;20031;-91
2021/04/22 11:18:13;;;;;;;9.05;2.25;;;16.40;47.50;;;;;;4955727;29;20471;-91
2021/04/22 11:20:43;;;;;;;8.70;1.63;;;16.70;47.40;;;;;;4938960;29;20028;-90
2021/04/22 11:23:17;;;;;;;9.67;1.67;;;16.80;47.50;;;;;;4938825;29;20126;-91
2021/04/22 11:25:55;;;;;;;5.25;1.50;;;17.00;47.20;;;;;;4939115;29;20273;-90
2021/04/22 11:28:47;;;;;;;6.57;1.80;;;17.10;46.60;;;;;;4941588;29;20031;-90
2021/04/22 11:31:17;;;;;;;4.88;1.55;;;17.20;45.70;;;;;;4936599;28;20075;-88
2021/04/22 11:33:45;;;;;;;6.50;1.30;;;17.10;43.80;;;;;;4940113;29;20122;-91
2021/04/22 11:36:25;;;;;;;4.43;1.40;;;17.10;43.30;;;;;;4959922;28;20034;-91
2021/04/22 11:39:04;;;;;;;9.23;2.15;;;17.20;42.50;;;;;;4945213;29;20499;-92
2021/04/22 11:41:32;;;;;;;6.45;1.40;;;17.30;42.10;;;;;;4941671;29;20031;-91
2021/04/22 11:44:08;;;;;;;5.60;1.42;;;17.40;42.10;;;;;;4942585;29;20505;-91
2021/04/22 11:46:41;;;;;;;8.57;1.85;;;17.60;41.90;;;;;;4941674;29;20513;-92
2021/04/22 11:49:08;;;;;;;6.25;2.08;;;17.80;41.80;;;;;;4942216;29;20027;-92
2021/04/22 11:51:41;;;;;;;5.70;1.58;;;17.80;41.70;;;;;;4942146;29;20034;-91
2021/04/22 11:54:32;;;;;;;6.72;1.70;;;17.90;41.90;;;;;;4942168;29;20410;-90
2021/04/22 11:57:01;;;;;;;6.28;1.63;;;18.10;41.10;;;;;;4942250;29;20050;-91
2021/04/22 11:59:31;;;;;;;4.97;1.30;;;18.30;40.70;;;;;;4942079;29;20039;-91
2021/04/22 12:02:00;;;;;;;7.00;1.50;;;18.40;39.40;;;;;;4959279;29;20463;-90
2021/04/22 12:04:49;;;;;;;5.30;1.38;;;18.40;38.90;;;;;;4944259;28;20043;-90
2021/04/22 12:07:21;;;;;;;6.97;1.77;;;18.40;38.80;;;;;;4954264;29;20031;-90
2021/04/22 12:09:49;;;;;;;4.45;1.42;;;18.50;38.70;;;;;;4940797;29;20032;-91
2021/04/22 12:12:23;;;;;;;8.40;1.98;;;18.70;38.90;;;;;;4939927;29;20038;-89
2021/04/22 12:14:54;;;;;;;9.50;1.80;;;18.90;38.40;;;;;;4961345;29;20110;-91
2021/04/22 12:17:43;;;;;;;6.38;2.08;;;18.90;38.10;;;;;;4948022;29;20027;-90
2021/04/22 12:20:10;;;;;;;7.00;1.88;;;18.80;38.00;;;;;;4949333;29;20074;-91
2021/04/22 12:22:45;;;;;;;5.32;1.90;;;18.70;38.40;;;;;;4962491;28;20023;-92
2021/04/22 12:25:20;;;;;;;5.68;1.80;;;18.70;37.80;;;;;;4962275;29;20070;-90
2021/04/22 12:27:50;;;;;;;10.23;1.80;;;18.70;38.10;;;;;;4949175;29;20055;-90
2021/04/22 12:30:22;;;;;;;7.40;2.03;;;18.80;38.10;;;;;;4944832;29;20039;-91
2021/04/22 12:33:05;;;;;;;5.18;1.48;;;19.00;37.80;;;;;;4941653;29;20122;-89
2021/04/22 12:35:33;;;;;;;4.70;1.80;;;19.40;37.70;;;;;;4959359;29;20047;-91
2021/04/22 12:38:30;;;;;;;6.43;1.63;;;19.60;37.60;;;;;;4941892;29;20122;-91
2021/04/22 12:41:06;;;;;;;8.68;1.92;;;19.80;37.30;;;;;;4938319;29;20123;-91
2021/04/22 12:43:35;;;;;;;4.72;1.48;;;19.50;36.20;;;;;;4924515;29;20038;-91
2021/04/22 12:46:11;;;;;;;6.75;1.92;;;19.40;36.40;;;;;;4927918;29;20029;-91
2021/04/22 12:48:44;;;;;;;7.07;1.83;;;19.60;36.70;;;;;;4957644;28;20035;-90
2021/04/22 12:51:11;;;;;;;7.97;1.95;;;19.50;36.20;;;;;;4962178;29;20058;-90
2021/04/22 12:53:40;;;;;;;6.45;1.92;;;19.60;36.20;;;;;;4962973;29;20619;-91